sensor_id;sensor_type;location;lat;lon;timestamp;temperature;humidity
43015;DHT22;28637;50.554;7.032;2024-01-07T00:03:15;3.10;99.90
43015;DHT22;28637;50.554;7.032;2024-01-07T00:08:17;3.10;99.90
43015;DHT22;28637;50.554;7.032;2024-01-07T00:13:17;3.10;99.90
43015;DHT22;28637;50.554;7.032;2024-01-07T00:18:18;3.00;99.90
43015;DHT22;28637;50.554;7.032;2024-01-07T00:23:19;3.10;99.90
43015;DHT22;28637;50.554;7.032;2024-01-07T00:28:20;3.10;99.90
43015;DHT22;28637;50.554;7.032;2024-01-07T00:33:21;3.10;99.90
43015;DHT22;28637;50.554;7.032;2024-01-07T00:38:22;3.10;99.90
43015;DHT22;28637;50.554;7.032;2024-01-07T00:43:22;3.10;99.90
43015;DHT22;28637;50.554;7.032;2024-01-07T00:48:23;3.20;99.90
43015;DHT22;28637;50.554;7.032;2024-01-07T00:53:24;3.20;99.90
43015;DHT22;28637;50.554;7.032;2024-01-07T00:58:24;3.20;99.90
43015;DHT22;28637;50.554;7.032;2024-01-07T01:03:25;3.20;99.90
43015;DHT22;28637;50.554;7.032;2024-01-07T01:08:26;3.20;99.90
43015;DHT22;28637;50.554;7.032;2024-01-07T01:13:27;3.20;99.90
43015;DHT22;28637;50.554;7.032;2024-01-07T01:18:27;3.20;99.90
43015;DHT22;28637;50.554;7.032;2024-01-07T01:23:28;3.20;99.90
43015;DHT22;28637;50.554;7.032;2024-01-07T01:28:29;3.20;99.90
43015;DHT22;28637;50.554;7.032;2024-01-07T01:33:30;3.30;99.90
43015;DHT22;28637;50.554;7.032;2024-01-07T01:38:30;3.30;99.90
43015;DHT22;28637;50.554;7.032;2024-01-07T01:43:31;3.30;99.90
43015;DHT22;28637;50.554;7.032;2024-01-07T01:48:32;3.20;99.90
43015;DHT22;28637;50.554;7.032;2024-01-07T01:53:33;3.20;99.90
43015;DHT22;28637;50.554;7.032;2024-01-07T01:58:34;3.30;99.90
43015;DHT22;28637;50.554;7.032;2024-01-07T02:03:34;3.20;99.90
43015;DHT22;28637;50.554;7.032;2024-01-07T02:08:35;3.30;99.90
43015;DHT22;28637;50.554;7.032;2024-01-07T02:13:36;3.30;99.90
43015;DHT22;28637;50.554;7.032;2024-01-07T02:18:38;3.30;99.90
43015;DHT22;28637;50.554;7.032;2024-01-07T02:23:40;3.20;99.90
43015;DHT22;28637;50.554;7.032;2024-01-07T02:28:41;3.30;99.90
43015;DHT22;28637;50.554;7.032;2024-01-07T02:33:42;3.30;99.90
43015;DHT22;28637;50.554;7.032;2024-01-07T02:38:42;3.30;99.90
43015;DHT22;28637;50.554;7.032;2024-01-07T02:43:43;3.30;99.90
43015;DHT22;28637;50.554;7.032;2024-01-07T02:48:44;3.30;99.90
43015;DHT22;28637;50.554;7.032;2024-01-07T02:53:44;3.30;99.90
43015;DHT22;28637;50.554;7.032;2024-01-07T02:58:45;3.30;99.90
43015;DHT22;28637;50.554;7.032;2024-01-07T03:03:46;3.30;99.90
43015;DHT22;28637;50.554;7.032;2024-01-07T03:08:47;3.30;99.90
43015;DHT22;28637;50.554;7.032;2024-01-07T03:13:49;3.30;99.90
43015;DHT22;28637;50.554;7.032;2024-01-07T03:18:50;3.30;99.90
43015;DHT22;28637;50.554;7.032;2024-01-07T03:23:52;3.30;99.90
43015;DHT22;28637;50.554;7.032;2024-01-07T03:28:52;3.30;99.90
43015;DHT22;28637;50.554;7.032;2024-01-07T03:33:53;3.20;99.90
43015;DHT22;28637;50.554;7.032;2024-01-07T03:38:54;3.20;99.90
43015;DHT22;28637;50.554;7.032;2024-01-07T03:43:55;3.20;99.90
43015;DHT22;28637;50.554;7.032;2024-01-07T03:48:55;3.20;99.90
43015;DHT22;28637;50.554;7.032;2024-01-07T03:53:56;3.30;99.90
43015;DHT22;28637;50.554;7.032;2024-01-07T03:58:57;3.30;99.90
43015;DHT22;28637;50.554;7.032;2024-01-07T04:03:57;3.30;99.90
43015;DHT22;28637;50.554;7.032;2024-01-07T04:08:58;3.30;99.90
43015;DHT22;28637;50.554;7.032;2024-01-07T04:13:59;3.20;99.90
43015;DHT22;28637;50.554;7.032;2024-01-07T04:18:59;3.20;99.90
43015;DHT22;28637;50.554;7.032;2024-01-07T04:24:00;3.30;99.90
43015;DHT22;28637;50.554;7.032;2024-01-07T04:29:01;3.20;99.90
43015;DHT22;28637;50.554;7.032;2024-01-07T04:34:01;3.30;99.90
43015;DHT22;28637;50.554;7.032;2024-01-07T04:39:02;3.20;99.90
43015;DHT22;28637;50.554;7.032;2024-01-07T04:44:03;3.20;99.90
43015;DHT22;28637;50.554;7.032;2024-01-07T04:49:03;3.20;99.90
43015;DHT22;28637;50.554;7.032;2024-01-07T04:54:04;3.20;99.90
43015;DHT22;28637;50.554;7.032;2024-01-07T04:59:06;3.20;99.90
43015;DHT22;28637;50.554;7.032;2024-01-07T05:04:07;3.10;99.90
43015;DHT22;28637;50.554;7.032;2024-01-07T05:09:07;3.20;99.90
43015;DHT22;28637;50.554;7.032;2024-01-07T05:14:08;3.10;99.90
43015;DHT22;28637;50.554;7.032;2024-01-07T05:19:09;3.10;99.90
43015;DHT22;28637;50.554;7.032;2024-01-07T05:24:09;3.10;99.90
43015;DHT22;28637;50.554;7.032;2024-01-07T05:29:11;3.10;99.90
43015;DHT22;28637;50.554;7.032;2024-01-07T05:34:12;3.20;99.90
43015;DHT22;28637;50.554;7.032;2024-01-07T05:39:13;3.20;99.90
43015;DHT22;28637;50.554;7.032;2024-01-07T05:44:14;3.10;99.90
43015;DHT22;28637;50.554;7.032;2024-01-07T05:49:14;3.10;99.90
43015;DHT22;28637;50.554;7.032;2024-01-07T05:54:15;3.10;99.90
43015;DHT22;28637;50.554;7.032;2024-01-07T05:59:16;3.10;99.90
43015;DHT22;28637;50.554;7.032;2024-01-07T06:04:16;3.20;99.90
43015;DHT22;28637;50.554;7.032;2024-01-07T06:09:17;3.20;99.90
43015;DHT22;28637;50.554;7.032;2024-01-07T06:14:18;3.10;99.90
43015;DHT22;28637;50.554;7.032;2024-01-07T06:19:18;3.10;99.90
43015;DHT22;28637;50.554;7.032;2024-01-07T06:24:19;3.40;99.90
43015;DHT22;28637;50.554;7.032;2024-01-07T06:29:20;3.50;99.90
43015;DHT22;28637;50.554;7.032;2024-01-07T06:34:20;3.50;99.90
43015;DHT22;28637;50.554;7.032;2024-01-07T06:39:21;3.60;99.90
43015;DHT22;28637;50.554;7.032;2024-01-07T06:44:22;3.50;99.90
43015;DHT22;28637;50.554;7.032;2024-01-07T06:49:22;3.40;99.90
43015;DHT22;28637;50.554;7.032;2024-01-07T06:54:23;3.30;99.90
43015;DHT22;28637;50.554;7.032;2024-01-07T06:59:24;3.20;99.90
43015;DHT22;28637;50.554;7.032;2024-01-07T07:04:25;3.20;99.90
43015;DHT22;28637;50.554;7.032;2024-01-07T07:09:25;3.10;99.90
43015;DHT22;28637;50.554;7.032;2024-01-07T07:14:26;3.10;99.90
43015;DHT22;28637;50.554;7.032;2024-01-07T07:19:27;3.10;99.90
43015;DHT22;28637;50.554;7.032;2024-01-07T07:24:27;3.00;99.90
43015;DHT22;28637;50.554;7.032;2024-01-07T07:29:28;3.00;99.90
43015;DHT22;28637;50.554;7.032;2024-01-07T07:34:29;3.00;99.90
43015;DHT22;28637;50.554;7.032;2024-01-07T07:39:29;3.00;99.90
43015;DHT22;28637;50.554;7.032;2024-01-07T07:44:31;3.00;99.90
43015;DHT22;28637;50.554;7.032;2024-01-07T07:49:32;3.00;99.90
43015;DHT22;28637;50.554;7.032;2024-01-07T07:54:33;3.00;99.90
43015;DHT22;28637;50.554;7.032;2024-01-07T07:59:34;3.00;99.90
43015;DHT22;28637;50.554;7.032;2024-01-07T08:04:35;3.00;99.90
43015;DHT22;28637;50.554;7.032;2024-01-07T08:09:36;2.90;99.90
43015;DHT22;28637;50.554;7.032;2024-01-07T08:14:40;2.90;99.90
43015;DHT22;28637;50.554;7.032;2024-01-07T08:19:41;2.90;99.90
43015;DHT22;28637;50.554;7.032;2024-01-07T08:24:42;2.90;99.90
43015;DHT22;28637;50.554;7.032;2024-01-07T08:29:43;2.90;99.90
43015;DHT22;28637;50.554;7.032;2024-01-07T08:34:44;2.90;99.90
43015;DHT22;28637;50.554;7.032;2024-01-07T08:39:45;2.90;99.90
43015;DHT22;28637;50.554;7.032;2024-01-07T08:44:46;2.90;99.90
43015;DHT22;28637;50.554;7.032;2024-01-07T08:49:47;2.90;99.90
43015;DHT22;28637;50.554;7.032;2024-01-07T08:54:48;2.90;99.90
43015;DHT22;28637;50.554;7.032;2024-01-07T08:59:49;2.80;99.90
43015;DHT22;28637;50.554;7.032;2024-01-07T09:04:50;2.80;99.90
43015;DHT22;28637;50.554;7.032;2024-01-07T09:09:51;2.80;99.90
43015;DHT22;28637;50.554;7.032;2024-01-07T09:14:51;2.80;99.90
43015;DHT22;28637;50.554;7.032;2024-01-07T09:19:52;2.80;99.90
43015;DHT22;28637;50.554;7.032;2024-01-07T09:24:53;2.80;99.90
43015;DHT22;28637;50.554;7.032;2024-01-07T09:29:54;2.80;99.90
43015;DHT22;28637;50.554;7.032;2024-01-07T09:34:54;2.80;99.90
43015;DHT22;28637;50.554;7.032;2024-01-07T09:39:55;2.80;99.90
43015;DHT22;28637;50.554;7.032;2024-01-07T09:44:56;2.80;99.90
43015;DHT22;28637;50.554;7.032;2024-01-07T09:49:57;2.80;99.90
43015;DHT22;28637;50.554;7.032;2024-01-07T09:55:00;2.70;99.90
43015;DHT22;28637;50.554;7.032;2024-01-07T10:00:03;2.80;99.90
43015;DHT22;28637;50.554;7.032;2024-01-07T10:05:05;2.70;99.90
43015;DHT22;28637;50.554;7.032;2024-01-07T10:10:17;2.70;99.90
43015;DHT22;28637;50.554;7.032;2024-01-07T10:15:20;2.70;99.90
43015;DHT22;28637;50.554;7.032;2024-01-07T10:20:24;2.80;99.90
43015;DHT22;28637;50.554;7.032;2024-01-07T10:25:31;2.70;99.90
43015;DHT22;28637;50.554;7.032;2024-01-07T10:30:40;2.70;99.90
43015;DHT22;28637;50.554;7.032;2024-01-07T10:35:48;2.80;99.90
43015;DHT22;28637;50.554;7.032;2024-01-07T10:41:00;2.80;99.90
43015;DHT22;28637;50.554;7.032;2024-01-07T10:46:05;2.80;99.90
43015;DHT22;28637;50.554;7.032;2024-01-07T10:51:10;2.80;99.90
43015;DHT22;28637;50.554;7.032;2024-01-07T10:56:16;2.90;99.90
43015;DHT22;28637;50.554;7.032;2024-01-07T11:01:28;2.90;99.90
43015;DHT22;28637;50.554;7.032;2024-01-07T11:11:38;2.90;99.90
43015;DHT22;28637;50.554;7.032;2024-01-07T11:16:43;2.90;99.90
43015;DHT22;28637;50.554;7.032;2024-01-07T11:21:44;2.90;99.90
43015;DHT22;28637;50.554;7.032;2024-01-07T11:26:45;2.90;99.90
43015;DHT22;28637;50.554;7.032;2024-01-07T11:31:49;2.90;99.90
43015;DHT22;28637;50.554;7.032;2024-01-07T11:36:51;2.90;99.90
43015;DHT22;28637;50.554;7.032;2024-01-07T11:41:52;2.90;99.90
43015;DHT22;28637;50.554;7.032;2024-01-07T11:46:53;2.90;99.90
43015;DHT22;28637;50.554;7.032;2024-01-07T11:51:54;2.90;99.90
43015;DHT22;28637;50.554;7.032;2024-01-07T11:56:56;2.90;99.90
43015;DHT22;28637;50.554;7.032;2024-01-07T12:02:00;2.90;99.90
43015;DHT22;28637;50.554;7.032;2024-01-07T12:07:05;2.80;99.90
43015;DHT22;28637;50.554;7.032;2024-01-07T12:12:08;2.80;99.90
43015;DHT22;28637;50.554;7.032;2024-01-07T12:17:10;2.80;99.90
43015;DHT22;28637;50.554;7.032;2024-01-07T12:22:11;2.80;99.90
43015;DHT22;28637;50.554;7.032;2024-01-07T12:27:13;2.80;99.90
43015;DHT22;28637;50.554;7.032;2024-01-07T12:32:16;2.80;99.90
43015;DHT22;28637;50.554;7.032;2024-01-07T12:37:17;2.80;99.90
43015;DHT22;28637;50.554;7.032;2024-01-07T12:42:18;2.90;99.90
43015;DHT22;28637;50.554;7.032;2024-01-07T12:47:20;2.90;99.90
43015;DHT22;28637;50.554;7.032;2024-01-07T12:52:21;2.90;99.90
43015;DHT22;28637;50.554;7.032;2024-01-07T12:57:22;2.80;99.90
43015;DHT22;28637;50.554;7.032;2024-01-07T13:02:22;2.90;99.90
43015;DHT22;28637;50.554;7.032;2024-01-07T13:07:23;2.80;99.90
43015;DHT22;28637;50.554;7.032;2024-01-07T13:12:25;2.80;99.90
43015;DHT22;28637;50.554;7.032;2024-01-07T13:17:26;2.90;99.90
43015;DHT22;28637;50.554;7.032;2024-01-07T13:22:27;2.80;99.90
43015;DHT22;28637;50.554;7.032;2024-01-07T13:27:28;2.80;99.90
43015;DHT22;28637;50.554;7.032;2024-01-07T13:32:29;2.80;99.90
43015;DHT22;28637;50.554;7.032;2024-01-07T13:37:30;2.80;99.90
43015;DHT22;28637;50.554;7.032;2024-01-07T13:42:31;2.80;99.90
43015;DHT22;28637;50.554;7.032;2024-01-07T13:47:32;2.70;99.90
43015;DHT22;28637;50.554;7.032;2024-01-07T13:52:32;2.70;99.90
43015;DHT22;28637;50.554;7.032;2024-01-07T13:57:33;2.70;99.90
43015;DHT22;28637;50.554;7.032;2024-01-07T14:02:35;2.60;99.90
43015;DHT22;28637;50.554;7.032;2024-01-07T14:07:35;2.60;99.90
43015;DHT22;28637;50.554;7.032;2024-01-07T14:12:36;2.60;99.90
43015;DHT22;28637;50.554;7.032;2024-01-07T14:17:37;2.60;99.90
43015;DHT22;28637;50.554;7.032;2024-01-07T14:22:38;2.60;99.90
43015;DHT22;28637;50.554;7.032;2024-01-07T14:27:39;2.50;99.90
43015;DHT22;28637;50.554;7.032;2024-01-07T14:32:41;2.40;99.90
43015;DHT22;28637;50.554;7.032;2024-01-07T14:37:41;2.30;99.90
43015;DHT22;28637;50.554;7.032;2024-01-07T14:42:42;2.30;99.90
43015;DHT22;28637;50.554;7.032;2024-01-07T14:47:44;2.20;99.90
43015;DHT22;28637;50.554;7.032;2024-01-07T14:52:45;2.10;99.90
43015;DHT22;28637;50.554;7.032;2024-01-07T14:57:46;2.00;99.90
43015;DHT22;28637;50.554;7.032;2024-01-07T15:02:46;1.80;99.90
43015;DHT22;28637;50.554;7.032;2024-01-07T15:07:47;1.90;99.90
43015;DHT22;28637;50.554;7.032;2024-01-07T15:12:48;1.90;99.90
43015;DHT22;28637;50.554;7.032;2024-01-07T15:17:50;1.80;99.90
43015;DHT22;28637;50.554;7.032;2024-01-07T15:22:52;1.70;99.90
43015;DHT22;28637;50.554;7.032;2024-01-07T15:27:53;1.60;99.90
43015;DHT22;28637;50.554;7.032;2024-01-07T15:32:54;1.50;99.90
43015;DHT22;28637;50.554;7.032;2024-01-07T15:37:54;1.40;99.90
43015;DHT22;28637;50.554;7.032;2024-01-07T15:42:56;1.40;99.90
43015;DHT22;28637;50.554;7.032;2024-01-07T15:47:57;1.40;99.90
43015;DHT22;28637;50.554;7.032;2024-01-07T15:52:58;1.40;99.90
43015;DHT22;28637;50.554;7.032;2024-01-07T15:57:59;1.40;99.90
43015;DHT22;28637;50.554;7.032;2024-01-07T16:03:00;1.50;99.90
43015;DHT22;28637;50.554;7.032;2024-01-07T16:08:01;1.40;99.90
43015;DHT22;28637;50.554;7.032;2024-01-07T16:13:02;1.20;99.90
43015;DHT22;28637;50.554;7.032;2024-01-07T16:18:03;1.20;99.90
43015;DHT22;28637;50.554;7.032;2024-01-07T16:23:04;1.30;99.90
43015;DHT22;28637;50.554;7.032;2024-01-07T16:28:05;1.20;99.90
43015;DHT22;28637;50.554;7.032;2024-01-07T16:33:07;1.10;99.90
43015;DHT22;28637;50.554;7.032;2024-01-07T16:38:09;1.00;99.90
43015;DHT22;28637;50.554;7.032;2024-01-07T16:43:09;0.80;99.90
43015;DHT22;28637;50.554;7.032;2024-01-07T16:48:10;0.80;99.90
43015;DHT22;28637;50.554;7.032;2024-01-07T16:53:11;0.70;99.90
43015;DHT22;28637;50.554;7.032;2024-01-07T17:10:06;0.60;99.90
43015;DHT22;28637;50.554;7.032;2024-01-07T17:15:09;0.50;99.90
43015;DHT22;28637;50.554;7.032;2024-01-07T17:20:11;0.60;99.90
43015;DHT22;28637;50.554;7.032;2024-01-07T17:25:13;0.50;99.90
43015;DHT22;28637;50.554;7.032;2024-01-07T17:30:13;0.50;99.90
43015;DHT22;28637;50.554;7.032;2024-01-07T17:35:16;0.50;99.90
43015;DHT22;28637;50.554;7.032;2024-01-07T17:40:17;0.40;99.90
43015;DHT22;28637;50.554;7.032;2024-01-07T17:45:18;0.50;99.90
43015;DHT22;28637;50.554;7.032;2024-01-07T17:50:21;0.40;99.90
43015;DHT22;28637;50.554;7.032;2024-01-07T17:55:22;0.20;99.90
43015;DHT22;28637;50.554;7.032;2024-01-07T18:00:23;0.10;99.90
43015;DHT22;28637;50.554;7.032;2024-01-07T18:05:24;0.00;99.90
43015;DHT22;28637;50.554;7.032;2024-01-07T18:10:24;0.00;99.90
43015;DHT22;28637;50.554;7.032;2024-01-07T18:15:25;0.10;99.90
43015;DHT22;28637;50.554;7.032;2024-01-07T18:20:26;0.00;99.90
43015;DHT22;28637;50.554;7.032;2024-01-07T18:25:26;0.10;99.90
43015;DHT22;28637;50.554;7.032;2024-01-07T18:30:27;0.00;99.90
43015;DHT22;28637;50.554;7.032;2024-01-07T18:35:28;0.00;99.90
43015;DHT22;28637;50.554;7.032;2024-01-07T18:40:29;0.10;99.90
43015;DHT22;28637;50.554;7.032;2024-01-07T18:45:30;0.10;99.90
43015;DHT22;28637;50.554;7.032;2024-01-07T18:50:34;0.10;99.90
43015;DHT22;28637;50.554;7.032;2024-01-07T18:55:34;0.10;99.90
43015;DHT22;28637;50.554;7.032;2024-01-07T19:00:40;0.10;99.90
43015;DHT22;28637;50.554;7.032;2024-01-07T19:05:41;0.00;99.90
43015;DHT22;28637;50.554;7.032;2024-01-07T19:10:44;0.00;99.90
43015;DHT22;28637;50.554;7.032;2024-01-07T19:20:55;0.10;99.90
43015;DHT22;28637;50.554;7.032;2024-01-07T19:25:56;0.00;99.90
43015;DHT22;28637;50.554;7.032;2024-01-07T19:30:57;0.00;99.90
43015;DHT22;28637;50.554;7.032;2024-01-07T19:35:58;0.00;99.90
43015;DHT22;28637;50.554;7.032;2024-01-07T19:41:01;0.00;99.90
43015;DHT22;28637;50.554;7.032;2024-01-07T19:46:03;0.00;99.90
43015;DHT22;28637;50.554;7.032;2024-01-07T19:51:04;0.00;99.90
43015;DHT22;28637;50.554;7.032;2024-01-07T19:56:05;-0.10;99.90
43015;DHT22;28637;50.554;7.032;2024-01-07T20:01:06;-0.10;99.90
43015;DHT22;28637;50.554;7.032;2024-01-07T20:06:08;0.00;99.90
43015;DHT22;28637;50.554;7.032;2024-01-07T20:11:21;0.00;99.90
43015;DHT22;28637;50.554;7.032;2024-01-07T20:21:28;0.20;99.90
43015;DHT22;28637;50.554;7.032;2024-01-07T20:26:30;0.20;99.90
43015;DHT22;28637;50.554;7.032;2024-01-07T20:31:31;0.20;99.90
43015;DHT22;28637;50.554;7.032;2024-01-07T20:36:32;0.30;99.90
43015;DHT22;28637;50.554;7.032;2024-01-07T20:41:33;0.30;99.90
43015;DHT22;28637;50.554;7.032;2024-01-07T20:46:34;0.30;99.90
43015;DHT22;28637;50.554;7.032;2024-01-07T20:51:36;0.40;99.90
43015;DHT22;28637;50.554;7.032;2024-01-07T20:56:36;1.30;99.90
43015;DHT22;28637;50.554;7.032;2024-01-07T21:01:37;1.90;99.90
43015;DHT22;28637;50.554;7.032;2024-01-07T21:06:38;1.80;99.90
43015;DHT22;28637;50.554;7.032;2024-01-07T21:11:39;1.50;99.90
43015;DHT22;28637;50.554;7.032;2024-01-07T21:16:40;1.40;99.90
43015;DHT22;28637;50.554;7.032;2024-01-07T21:21:40;1.10;99.90
43015;DHT22;28637;50.554;7.032;2024-01-07T21:26:41;1.00;99.90
43015;DHT22;28637;50.554;7.032;2024-01-07T21:31:43;1.00;99.90
43015;DHT22;28637;50.554;7.032;2024-01-07T21:36:43;1.70;99.90
43015;DHT22;28637;50.554;7.032;2024-01-07T21:41:44;1.80;99.90
43015;DHT22;28637;50.554;7.032;2024-01-07T21:46:47;1.60;99.90
43015;DHT22;28637;50.554;7.032;2024-01-07T21:51:47;1.20;99.90
43015;DHT22;28637;50.554;7.032;2024-01-07T21:56:48;1.20;99.90
43015;DHT22;28637;50.554;7.032;2024-01-07T22:01:49;1.00;99.90
43015;DHT22;28637;50.554;7.032;2024-01-07T22:06:49;0.80;99.90
43015;DHT22;28637;50.554;7.032;2024-01-07T22:11:51;0.70;99.90
43015;DHT22;28637;50.554;7.032;2024-01-07T22:16:51;0.60;99.90
43015;DHT22;28637;50.554;7.032;2024-01-07T22:21:52;0.60;99.90
43015;DHT22;28637;50.554;7.032;2024-01-07T22:26:53;0.60;99.90
43015;DHT22;28637;50.554;7.032;2024-01-07T22:31:53;0.50;99.90
43015;DHT22;28637;50.554;7.032;2024-01-07T22:36:54;0.60;99.90
43015;DHT22;28637;50.554;7.032;2024-01-07T22:41:55;0.50;99.90
43015;DHT22;28637;50.554;7.032;2024-01-07T22:46:56;0.60;99.90
43015;DHT22;28637;50.554;7.032;2024-01-07T22:51:57;0.60;99.90
43015;DHT22;28637;50.554;7.032;2024-01-07T22:56:58;0.50;99.90
43015;DHT22;28637;50.554;7.032;2024-01-07T23:02:00;0.40;99.90
43015;DHT22;28637;50.554;7.032;2024-01-07T23:07:01;0.50;99.90
43015;DHT22;28637;50.554;7.032;2024-01-07T23:12:02;0.50;99.90
43015;DHT22;28637;50.554;7.032;2024-01-07T23:17:03;0.60;99.90
43015;DHT22;28637;50.554;7.032;2024-01-07T23:22:04;0.60;99.90
43015;DHT22;28637;50.554;7.032;2024-01-07T23:27:05;0.60;99.90
43015;DHT22;28637;50.554;7.032;2024-01-07T23:32:06;0.50;99.90
43015;DHT22;28637;50.554;7.032;2024-01-07T23:37:07;0.40;99.90
43015;DHT22;28637;50.554;7.032;2024-01-07T23:42:08;0.50;99.90
43015;DHT22;28637;50.554;7.032;2024-01-07T23:47:08;0.50;99.90
43015;DHT22;28637;50.554;7.032;2024-01-07T23:52:10;0.30;99.90
43015;DHT22;28637;50.554;7.032;2024-01-07T23:57:10;0.20;99.90
